Hlavní strana
METAR-TAF:

METAR-TAF

Letiště :

Florencie, Itálie

zeměpisná šířka: 43-48N, zeměpisná délka: 011-12E, výška: 40 m

Aktuální stav počasí

Zpráva byla vytvořena před 41 minutami, v 17:50 UTC
vítr z různých směrů 2 kt
Teplota 7°C
Vlhkost vzduchu 76%
Tlak 1012 hPa
Viditelnost 10 km a více
Skoro jasno ve výšce 6000 ft

METAR: LIRQ 181750Z VRB02KT 9999 FEW060 07/03 Q1012

Čas: 19:31 (18:31 UTC)

Předpověď počasí

Zpráva byla vytvořena před 1 hodinou a 31 minutami, v 17:00 UTC
Předpověď platná od 18 v 18 UTC do 19 v 18 UTC
vítr z různých směrů 5 kt
Viditelnost 10 km a více
Polojasno ve výšce 4000 ft

TAF: LIRQ 181700Z 1818/1918 VRB05KT 9999 SCT040

Stav a předpovědi počasí z více než 4 000 letišť (zprávy METAR a TAF).

Červené a žluté tečky na mapě představují dostupné meteorologické stanice.

Když kurzor umístíte na tečku, zobrazí se název stanice.

Pak kliknutím zobrazíte stav a předpověď počasí.

Chcete-li změnit mapu, kliknutím na zelené tlačítko se znaménkem +mapu přiblížíte, kliknutím na zelené tlačítko se znaménkem – mapu oddálíte a kliknutím na zelené šipky přejdete na sousední mapy.


METAR-TAF: